Vliegveldwaarnemingen Nederland - (AUTO) METAR

Luchtvaartmeteorologische informatie voor operationeel gebruik en vluchtvoorbereiding is beschikbaar op www.luchtvaartmeteo.nl.

ZCZC
SA150055 EHKD     DE KOOY/DE KOOY   NLD   1 m.
METAR EHKD 150055Z AUTO 23008KT 9999 SCT037 OVC041 20/15 Q1016 BLU=

ZCZC
SA150055 EHFD     F3-FB-1   NLD   50 m.
METAR EHFD 150055Z AUTO 26019KT //// // FEW036/// SCT040/// 19/16
Q1013 RE// W///H///=

ZCZC
SA150055 EHAM     AMSTERDAM/SCHIPHOL   NLD   -3 m.
METAR EHAM 150055Z 19005KT 9999 BKN041 18/16 Q1017 NOSIG=

ZCZC
SA150055 EHVL     VLIELAND   NLD   10 m.
METAR EHVL 150055Z AUTO 24014KT 9999 BKN046 OVC051 19/16 Q1015 BLU=

ZCZC
SA150055 EHJR     K13-A   NLD   37 m.
METAR EHJR 150055Z AUTO 25017KT //// // ///////// 19/17 Q1015 RE//
W18/H8=

ZCZC
SA150055 EHLW     LEEUWARDEN/LEEUWARDEN   NLD   1 m.
METAR EHLW 150055Z AUTO 20004KT 9999 OVC047 17/16 Q1016 BLU=

ZCZC
SA150055 EHDL     ARNHEM/DEELEN   NLD   48 m.
METAR EHDL 150055Z AUTO 21003KT 130V190 9999 OVC120 16/15 Q1017 BLU=

ZCZC
SA150055 EHGG     GRONINGEN/EELDE   NLD   5 m.
METAR EHGG 150055Z AUTO 24006KT 9999 NSC 17/15 Q1016=

ZCZC
SA150055 EHSC     LICHTEILAND GOEREE   NLD   22 m.
METAR EHSC 150055Z AUTO 23019KT 9999 ///////// 20/18 Q1016 W21/H10=

ZCZC
SA150055 EHSA     EURO PLATFORM   NLD   19 m.
METAR EHSA 150055Z AUTO 21017KT //// // ///////// 20/18 Q1017 RE//
W19/H10=

ZCZC
SA150055 EHWO     WOENSDRECHT/WOENSDRECHT   NLD   19 m.
METAR EHWO 150055Z AUTO 22006KT 9999 OVC057 18/15 Q1018 BLU=

ZCZC
SA150055 EHRD     ROTTERDAM/THE HAGUE AIRPORT   NLD   -5 m.
METAR EHRD 150055Z AUTO 22010KT 190V250 9999 NSC 19/16 Q1017 NOSIG=

ZCZC
SA150055 EHGR     GILZE-RIJEN/GILZE-RIJEN   NLD   14 m.
METAR EHGR 150055Z AUTO 21005KT 160V240 9999 BKN046 OVC051 17/14
Q1018 BLU=

ZCZC
SA150055 EHEH     EINDHOVEN/EINDHOVEN   NLD   22 m.
METAR EHEH 150055Z AUTO 21005KT 9999 NCD 15/13 Q1018 BLU=

ZCZC
SA150055 EHVK     VOLKEL/VOLKEL   NLD   21 m.
METAR EHVK 150055Z AUTO 23005KT 9999 OVC120 16/14 Q1018 BLU=

ZCZC
SA150055 EHBK     MAASTRICHT/MAASTRICHT-AACHEN   NLD   114 m.
METAR EHBK 150055Z AUTO 24005KT 210V290 9999 OVC048 17/14 Q1019=

ZCZC
SA150055 EHFZ     F16-A   NLD   43 m.
METAR EHFZ 150055Z AUTO 24014KT 9999 FEW025 BKN029 BKN035 18/16 Q1014
W///H///=

ZCZC
SA150055 EHKV     K14-FA-1C   NLD   41 m.
METAR EHKV 150055Z AUTO 22016KT 9999 SCT040 19/17 Q1015 W///H///=

ZCZC
SA150055 EHMG     L9-FF-1   NLD   44 m.
METAR EHMG 150055Z AUTO 24016KT 9999 FEW033 SCT038 BKN043 19/16 Q1016
W///H///=

ZCZC
SA150055 EHMA     AWG-1   NLD   40 m.
METAR EHMA 150055Z AUTO 25011KT 9999 BKN035 19/15 Q1015 W///H///=

ZCZC
SA150055 EHDV     D15-FA-1   NLD   42 m.
METAR EHDV 150055Z AUTO 25015KT 210V280 9999 FEW027/// OVC031///
18/15 Q1014 W///H///=

ZCZC
SA150055 EHAK     A12-CPP   NLD   48 m.
METAR EHAK 150055Z AUTO 24016KT 9999 FEW037/// SCT043/// OVC048///
18/16 Q1013 W///H///=

ZCZC
SA150055 EHQE     HOORN-A   NLD   50 m.
METAR EHQE 150055Z AUTO 18014KT 9999 FEW044 BKN049 19/17 Q1016
W///H///=

ZCZC
SA150055 EHJA     J6-A   NLD   45 m.
METAR EHJA 150055Z AUTO 24014KT 9999 SCT029/// BKN032/// OVC041///
18/16 Q1015 W///H///=

ZCZC
SA150055 EHPG     P11-B   NLD   41 m.
METAR EHPG 150055Z AUTO 22014KT 9999 NSC 20/18 Q1016 W///H///=

ZCZC
SA150055 EHHW     BUITENGAATS/BG-OHVS2      42 m.
METAR EHHW 150055Z AUTO 26011KT 180V300 //// // FEW014/// SCT046///
19/15 Q1015 RE// W///H///=

ZCZC
SA150055 EHFS     VLISSINGEN AWS   NLD   8 m.
METAR EHFS 150055Z AUTO 22010KT 9999 BKN011/// 18/16 Q1017 W///H///=

15/08/2018 03.15 uur LT